Time;durP1;ratioP1;P1;durP2;ratioP2;P2;SDS_P1;SDS_P2;PMS_P1;PMS_P2;Temp;Humidity;BMP_temperature;BMP_pressure;BME280_temperature;BME280_humidity;BME280_pressure;Samples;Min_cycle;Max_cycle;Signal;HPM_P1;HPM_P2
2022/02/15 00:09:47;;;;;;;65.9;79.1;;;;;;;-1.4;73;98330;;;;
2022/02/15 00:20:47;;;;;;;65.9;79.1;;;;;;;-1.4;74.6;98330;;;;
2022/02/15 00:31:47;;;;;;;65.9;79.1;;;;;;;-1.6;74;98320;;;;
2022/02/15 00:41:47;;;;;;;55.9;69;;;;;;;-1.7;74;98320;;;;
2022/02/15 00:51:47;;;;;;;55.9;69;;;;;;;-1.8;74.3;98300;;;;
2022/02/15 01:01:47;;;;;;;55.9;69;;;;;;;-1.9;75.3;98300;;;;
2022/02/15 01:12:47;;;;;;;55.4;67.2;;;;;;;-1.9;75.5;98290;;;;
2022/02/15 01:34:47;;;;;;;68.6;79.5;;;;;;;-2.2;76.4;98260;;;;
2022/02/15 01:45:47;;;;;;;68.6;79.5;;;;;;;-2.3;76.6;98250;;;;
2022/02/15 01:55:47;;;;;;;68.6;79.5;;;;;;;-2.4;76.9;98250;;;;
2022/02/15 02:06:47;;;;;;;70.8;86.5;;;;;;;-2.6;76.7;98250;;;;
2022/02/15 02:17:47;;;;;;;70.8;86.5;;;;;;;-2.7;77;98260;;;;
2022/02/15 02:28:47;;;;;;;70.8;86.5;;;;;;;-2.8;77.4;98260;;;;
2022/02/15 02:39:47;;;;;;;86.4;99.9;;;;;;;-2.8;78;98250;;;;
2022/02/15 02:49:47;;;;;;;86.4;99.9;;;;;;;-2.7;79.8;98240;;;;
2022/02/15 02:59:47;;;;;;;86.4;99.9;;;;;;;-2.7;79.5;98230;;;;
2022/02/15 03:10:47;;;;;;;75.2;89.7;;;;;;;-2.8;79;98230;;;;
2022/02/15 03:20:47;;;;;;;75.2;89.7;;;;;;;-2.9;79;98230;;;;
2022/02/15 03:30:47;;;;;;;75.2;89.7;;;;;;;-3.1;78.6;98230;;;;
2022/02/15 03:51:47;;;;;;;59.2;70.7;;;;;;;-3.3;78.8;98250;;;;
2022/02/15 04:01:47;;;;;;;59.5;68.3;;;;;;;-3.5;79.3;98270;;;;
2022/02/15 04:11:47;;;;;;;59.5;68.3;;;;;;;-3.4;80.9;98260;;;;
2022/02/15 04:21:47;;;;;;;59.5;68.3;;;;;;;-3.5;79.9;98270;;;;
2022/02/15 04:32:47;;;;;;;57.8;77.1;;;;;;;-3.6;79.7;98260;;;;
2022/02/15 04:43:47;;;;;;;57.8;77.1;;;;;;;-3.6;80.1;98270;;;;
2022/02/15 04:54:47;;;;;;;57.8;77.1;;;;;;;-3.7;80;98280;;;;
2022/02/15 05:05:47;;;;;;;50.2;62.5;;;;;;;-3.6;81.3;98280;;;;
2022/02/15 05:15:47;;;;;;;50.2;62.5;;;;;;;-3.5;81.5;98290;;;;
2022/02/15 05:25:47;;;;;;;50.2;62.5;;;;;;;-3.4;82.1;98290;;;;
2022/02/15 05:36:47;;;;;;;50.3;58.9;;;;;;;-3.3;82;98290;;;;
2022/02/15 05:46:47;;;;;;;50.3;58.9;;;;;;;-3.4;81.4;98280;;;;
2022/02/15 05:56:47;;;;;;;50.3;58.9;;;;;;;-3.5;81;98280;;;;
2022/02/15 06:07:47;;;;;;;53.9;62.3;;;;;;;-3.6;80.7;98280;;;;
2022/02/15 06:18:47;;;;;;;53.9;62.3;;;;;;;-3.5;81.2;98310;;;;
2022/02/15 06:28:47;;;;;;;53.9;62.3;;;;;;;-3.4;81.2;98320;;;;
2022/02/15 06:39:47;;;;;;;59.9;70.7;;;;;;;-3.3;81.4;98330;;;;
2022/02/15 06:49:47;;;;;;;59.9;70.7;;;;;;;-3;81.6;98340;;;;
2022/02/15 07:00:47;;;;;;;72;94.9;;;;;;;-2.6;82.1;98360;;;;
2022/02/15 07:10:47;;;;;;;72;94.9;;;;;;;-2.3;82.3;98370;;;;
2022/02/15 07:21:49;;;;;;;72;94.9;;;;;;;-1.8;82.3;98370;;;;
2022/02/15 07:31:47;;;;;;;69.9;81.4;;;;;;;-1.3;81.9;98370;;;;
2022/02/15 07:41:49;;;;;;;69.9;81.4;;;;;;;-0.8;81.7;98380;;;;
2022/02/15 07:52:47;;;;;;;69.9;81.4;;;;;;;-0.2;81.1;98390;;;;
2022/02/15 08:02:47;;;;;;;69.1;80.4;;;;;;;0.3;80.6;98390;;;;
2022/02/15 08:12:47;;;;;;;69.1;80.4;;;;;;;0.9;79.6;98390;;;;
2022/02/15 08:22:47;;;;;;;69.1;80.4;;;;;;;1.5;78.2;98390;;;;
2022/02/15 08:33:47;;;;;;;75.4;85.7;;;;;;;2.2;75.9;98400;;;;
2022/02/15 08:43:47;;;;;;;75.4;85.7;;;;;;;2.9;74.7;98380;;;;
2022/02/15 08:53:49;;;;;;;75.4;85.7;;;;;;;3.6;72;98390;;;;
2022/02/15 09:04:47;;;;;;;68.8;77.7;;;;;;;4.3;69.9;98390;;;;
2022/02/15 09:15:47;;;;;;;68.8;77.7;;;;;;;5;68.3;98400;;;;
2022/02/15 09:25:47;;;;;;;68.8;77.7;;;;;;;5.5;65.6;98410;;;;
2022/02/15 09:36:47;;;;;;;45.3;56.3;;;;;;;6.2;64;98410;;;;
2022/02/15 09:46:47;;;;;;;45.3;56.3;;;;;;;6.9;61.1;98410;;;;
2022/02/15 09:57:47;;;;;;;45.3;56.3;;;;;;;7.5;59.4;98410;;;;
2022/02/15 10:08:47;;;;;;;24.1;28.5;;;;;;;8;58.2;98410;;;;
2022/02/15 10:19:47;;;;;;;24.1;28.5;;;;;;;8.5;56.6;98390;;;;
2022/02/15 10:29:47;;;;;;;24.1;28.5;;;;;;;8.9;55.8;98400;;;;
2022/02/15 10:40:47;;;;;;;26.3;32.3;;;;;;;9.4;55;98410;;;;
2022/02/15 10:51:47;;;;;;;26.3;32.3;;;;;;;9.7;54;98400;;;;
2022/02/15 11:01:47;;;;;;;25;30.7;;;;;;;10.1;52.9;98410;;;;
2022/02/15 11:11:47;;;;;;;25;30.7;;;;;;;10.5;51;98410;;;;
2022/02/15 11:22:47;;;;;;;25;30.7;;;;;;;10.9;49.7;98400;;;;
2022/02/15 11:33:47;;;;;;;18.9;22.9;;;;;;;11.1;49.4;98410;;;;
2022/02/15 11:44:47;;;;;;;18.9;22.9;;;;;;;11.1;48.6;98410;;;;
2022/02/15 11:54:47;;;;;;;18.9;22.9;;;;;;;11.3;48;98410;;;;
2022/02/15 12:04:47;;;;;;;16.8;22.7;;;;;;;11.6;48.3;98410;;;;
2022/02/15 12:15:47;;;;;;;16.8;22.7;;;;;;;11.6;46.1;98420;;;;
2022/02/15 12:25:48;;;;;;;16.8;22.7;;;;;;;11.7;47.2;98420;;;;
2022/02/15 12:36:48;;;;;;;12.5;15.4;;;;;;;11.6;46.3;98420;;;;
2022/02/15 12:46:47;;;;;;;12.5;15.4;;;;;;;11.6;46.4;98420;;;;
2022/02/15 12:57:48;;;;;;;12.5;15.4;;;;;;;11.7;46.3;98430;;;;
2022/02/15 13:07:47;;;;;;;15.1;21.3;;;;;;;11.6;46.2;98410;;;;
2022/02/15 13:18:47;;;;;;;15.1;21.3;;;;;;;11.7;46.2;98410;;;;
2022/02/15 13:28:47;;;;;;;15.1;21.3;;;;;;;11.7;47.4;98420;;;;
2022/02/15 13:39:47;;;;;;;17;21.7;;;;;;;11.4;48;98420;;;;
2022/02/15 13:49:47;;;;;;;17;21.7;;;;;;;11.3;48.6;98420;;;;
2022/02/15 13:59:47;;;;;;;21.3;27.7;;;;;;;11.2;49.2;98430;;;;
2022/02/15 14:09:47;;;;;;;21.3;27.7;;;;;;;11.2;49.3;98420;;;;
2022/02/15 14:20:47;;;;;;;21.3;27.7;;;;;;;11.4;49.8;98420;;;;
2022/02/15 14:30:48;;;;;;;22.1;30.1;;;;;;;11.5;50;98430;;;;
2022/02/15 14:41:47;;;;;;;22.1;30.1;;;;;;;11.1;50.3;98440;;;;
2022/02/15 14:52:47;;;;;;;22.1;30.1;;;;;;;10.8;51.1;98440;;;;
2022/02/15 15:02:47;;;;;;;18.1;23.3;;;;;;;10.6;51.8;98440;;;;
2022/02/15 15:13:47;;;;;;;18.1;23.3;;;;;;;10.2;53;98450;;;;
2022/02/15 15:24:47;;;;;;;18.1;23.3;;;;;;;9.7;53.8;98450;;;;
2022/02/15 15:34:47;;;;;;;19.7;23.8;;;;;;;9.1;54.9;98450;;;;
2022/02/15 15:45:47;;;;;;;19.7;23.8;;;;;;;8.6;56.4;98470;;;;
2022/02/15 15:55:47;;;;;;;19.7;23.8;;;;;;;8.2;57.7;98470;;;;
2022/02/15 16:05:47;;;;;;;21.7;27.2;;;;;;;7.8;58.8;98480;;;;
2022/02/15 16:15:47;;;;;;;21.7;27.2;;;;;;;7.4;59.9;98480;;;;
2022/02/15 16:25:47;;;;;;;21.7;27.2;;;;;;;7.1;61.1;98480;;;;
2022/02/15 16:36:49;;;;;;;20.3;28.6;;;;;;;7.1;61.9;98480;;;;
2022/02/15 16:47:47;;;;;;;20.3;28.6;;;;;;;7;63;98490;;;;
2022/02/15 16:57:47;;;;;;;20.3;28.6;;;;;;;7;62.7;98500;;;;
2022/02/15 17:08:47;;;;;;;31.5;38;;;;;;;6.8;63.1;98490;;;;
2022/02/15 17:19:47;;;;;;;31.5;38;;;;;;;6.4;63.1;98510;;;;
2022/02/15 17:30:47;;;;;;;42.5;50.5;;;;;;;6;64.3;98530;;;;
2022/02/15 17:40:47;;;;;;;42.5;50.5;;;;;;;5.8;64.7;98550;;;;
2022/02/15 17:51:47;;;;;;;42.5;50.5;;;;;;;5.4;65.6;98560;;;;
2022/02/15 18:02:47;;;;;;;54.3;61.9;;;;;;;5.2;67.2;98560;;;;
2022/02/15 18:12:47;;;;;;;54.3;61.9;;;;;;;4.9;67.2;98570;;;;
2022/02/15 18:23:47;;;;;;;54.3;61.9;;;;;;;4.5;67.9;98560;;;;
2022/02/15 18:33:47;;;;;;;56.5;65.4;;;;;;;4.4;68.8;98560;;;;
2022/02/15 18:44:47;;;;;;;56.5;65.4;;;;;;;4.2;69.7;98560;;;;
2022/02/15 18:55:47;;;;;;;56.5;65.4;;;;;;;4;70.3;98560;;;;
2022/02/15 19:06:47;;;;;;;69.3;94.3;;;;;;;4.1;71.3;98560;;;;
2022/02/15 19:16:47;;;;;;;69.3;94.3;;;;;;;4.2;70.9;98560;;;;
2022/02/15 19:26:47;;;;;;;69.3;94.3;;;;;;;4.4;70.9;98560;;;;
2022/02/15 19:37:47;;;;;;;59.6;70.2;;;;;;;4.4;70.8;98580;;;;
2022/02/15 19:48:47;;;;;;;59.6;70.2;;;;;;;4.2;70.6;98580;;;;
2022/02/15 19:59:47;;;;;;;84.6;103.2;;;;;;;3.8;71.5;98600;;;;
2022/02/15 20:10:47;;;;;;;84.6;103.2;;;;;;;3.4;72.2;98590;;;;
2022/02/15 20:21:47;;;;;;;84.6;103.2;;;;;;;3;72.1;98610;;;;
2022/02/15 20:31:48;;;;;;;80.2;99.6;;;;;;;2.8;73.7;98590;;;;
2022/02/15 20:41:48;;;;;;;80.2;99.6;;;;;;;2.7;75;98590;;;;
2022/02/15 20:52:47;;;;;;;80.2;99.6;;;;;;;2.6;75;98600;;;;
2022/02/15 21:03:48;;;;;;;147.1;193;;;;;;;2.5;75.1;98600;;;;
2022/02/15 21:14:47;;;;;;;147.1;193;;;;;;;2.2;75;98600;;;;
2022/02/15 21:24:47;;;;;;;147.1;193;;;;;;;2.1;75.6;98600;;;;
2022/02/15 21:35:48;;;;;;;78.1;88;;;;;;;1.9;75.8;98600;;;;
2022/02/15 21:45:48;;;;;;;78.1;88;;;;;;;2.3;76.8;98600;;;;
2022/02/15 21:56:47;;;;;;;78.1;88;;;;;;;2.4;75.8;98590;;;;
2022/02/15 22:06:47;;;;;;;63.7;83.4;;;;;;;2.3;75.8;98580;;;;
2022/02/15 22:16:47;;;;;;;63.7;83.4;;;;;;;2.1;75.5;98580;;;;
2022/02/15 22:27:47;;;;;;;63.7;83.4;;;;;;;2;75.9;98590;;;;
2022/02/15 22:38:47;;;;;;;81.2;98.4;;;;;;;2;76.2;98590;;;;
2022/02/15 22:49:34;;;;;;;81.2;98.4;;;;;;;2;76.5;98580;;;;
2022/02/15 22:58:47;;;;;;;122.8;149.8;;;;;;;2.1;76.6;98580;;;;
2022/02/15 23:19:47;;;;;;;122.8;149.8;;;;;;;1.9;77;98570;;;;
2022/02/15 23:30:47;;;;;;;127.1;150.9;;;;;;;1.9;76.5;98570;;;;
2022/02/15 23:41:47;;;;;;;127.1;150.9;;;;;;;1.8;77.2;98570;;;;
2022/02/15 23:52:47;;;;;;;127.1;150.9;;;;;;;1.6;76.7;98560;;;;
